Thunder radar more information blitzortung!


Radar de pluja more information rain snow radar


Visita la nostra xarxa de llocs de meteo:

Template documentation
and downloads

And another site



No particular awareness of the weather is required.    There are no Weather-warnings

Pagina Historial Weather Underground text

Diari Resum Agost 21, 2017 Unitats:  Tant    Imperial   Mètric
« Previous Dia
SegĂźent Dia »
Diari Setmana Mensual Anual Personalitzada
  Maxima: Minima: Media:
Temperatura: 90.9 °F /  32.7 °C 66.7 °F /  19.3 °C 79.3 °F /  26.3 °C
Punt de rosada: 68.2 °F /  20.1 °C 60.4 °F /  15.8 °C 64.8 °F /  18.2 °C
Humitat: 87 % 38 % 63 %
Wind Speed: 11.5 mph /  18.5 km/h - 3.6 mph /  5.8 km/h
RĂ fegues de vent: 13 mph /  20.9 km/h - -
Vent:- - SSE
Pression baro: 30.1 in /  1019.9 hPa 30 in /  1014.8 hPa -
Precipitacions: 0 in /  0.0 mm    
Historical Graphs
 
 
Dades de taula per Agost 21, 2017
Temps Temperatura Punt de rosada Pression baro Vent Wind Speed RĂ fegues de vent Humitat Rainfall Rate (Hourly)
00:04 72.1 °F /  22.3 °C 64.2 °F /  17.9 °C 30.1 in /  1018.8 hPa SW 2.3 mph /  3.7 km/h 2.3 mph /  3.7 km/h 76 % 0 in /  0.0 mm
00:05 68.9 °F /  20.5 °C 64.2 °F /  17.9 °C 30.1 in /  1018.8 hPa Calm   2 mph /  3.2 km/h 85 % 0 in /  0.0 mm
00:15 68.5 °F /  20.3 °C 63.5 °F /  17.5 °C 30.1 in /  1018.8 hPa ENE 1 mph /  1.6 km/h 2 mph /  3.2 km/h 84 % 0 in /  0.0 mm
00:25 68.5 °F /  20.3 °C 63.9 °F /  17.7 °C 30.1 in /  1018.8 hPa Calm   1 mph /  1.6 km/h 85 % 0 in /  0.0 mm
00:35 68.5 °F /  20.3 °C 63.5 °F /  17.5 °C 30.1 in /  1018.8 hPa Calm   3 mph /  4.8 km/h 84 % 0 in /  0.0 mm
00:45 68.4 °F /  20.2 °C 63.7 °F /  17.6 °C 30.1 in /  1018.8 hPa Calm   1 mph /  1.6 km/h 85 % 0 in /  0.0 mm
00:55 68.2 °F /  20.1 °C 63.5 °F /  17.5 °C 30.1 in /  1018.8 hPa Calm   1 mph /  1.6 km/h 85 % 0 in /  0.0 mm
01:05 68 °F /  20.0 °C 63.3 °F /  17.4 °C 30.1 in /  1018.8 hPa Calm     85 % 0 in /  0.0 mm
01:15 67.8 °F /  19.9 °C 63.5 °F /  17.5 °C 30.1 in /  1018.8 hPa WSW 1 mph /  1.6 km/h 2 mph /  3.2 km/h 86 % 0 in /  0.0 mm
01:25 67.8 °F /  19.9 °C 63.5 °F /  17.5 °C 30.1 in /  1018.8 hPa SW 1 mph /  1.6 km/h 2 mph /  3.2 km/h 86 % 0 in /  0.0 mm
01:35 67.8 °F /  19.9 °C 63.5 °F /  17.5 °C 30.1 in /  1018.8 hPa Calm   1 mph /  1.6 km/h 86 % 0 in /  0.0 mm
01:45 67.6 °F /  19.8 °C 63.3 °F /  17.4 °C 30.1 in /  1018.8 hPa SW 1 mph /  1.6 km/h 2 mph /  3.2 km/h 86 % 0 in /  0.0 mm
01:55 67.5 °F /  19.7 °C 63.1 °F /  17.3 °C 30.1 in /  1018.8 hPa Calm     86 % 0 in /  0.0 mm
02:05 67.3 °F /  19.6 °C 63 °F /  17.2 °C 30.1 in /  1018.8 hPa Calm   1 mph /  1.6 km/h 86 % 0 in /  0.0 mm
02:15 67.3 °F /  19.6 °C 63 °F /  17.2 °C 30.1 in /  1018.8 hPa Calm   2 mph /  3.2 km/h 86 % 0 in /  0.0 mm
02:25 67.3 °F /  19.6 °C 63 °F /  17.2 °C 30.1 in /  1018.8 hPa WSW 1 mph /  1.6 km/h 2 mph /  3.2 km/h 86 % 0 in /  0.0 mm
02:35 67.3 °F /  19.6 °C 63 °F /  17.2 °C 30.1 in /  1018.8 hPa Calm   1 mph /  1.6 km/h 86 % 0 in /  0.0 mm
02:45 67.1 °F /  19.5 °C 62.8 °F /  17.1 °C 30.1 in /  1018.8 hPa WSW 1 mph /  1.6 km/h 1 mph /  1.6 km/h 86 % 0 in /  0.0 mm
02:55 67.1 °F /  19.5 °C 62.8 °F /  17.1 °C 30.1 in /  1018.8 hPa Calm     86 % 0 in /  0.0 mm
03:05 66.9 °F /  19.4 °C 62.6 °F /  17.0 °C 30.1 in /  1018.8 hPa Calm     86 % 0 in /  0.0 mm
03:15 66.7 °F /  19.3 °C 62.4 °F /  16.9 °C 30.1 in /  1018.8 hPa Calm   1 mph /  1.6 km/h 86 % 0 in /  0.0 mm
03:25 66.7 °F /  19.3 °C 62.8 °F /  17.1 °C 30.1 in /  1018.8 hPa Calm     87 % 0 in /  0.0 mm
03:35 66.7 °F /  19.3 °C 62.8 °F /  17.1 °C 30.1 in /  1018.8 hPa Calm     87 % 0 in /  0.0 mm
03:45 66.9 °F /  19.4 °C 63 °F /  17.2 °C 30.1 in /  1018.8 hPa Calm   1 mph /  1.6 km/h 87 % 0 in /  0.0 mm
03:55 67.1 °F /  19.5 °C 62.8 °F /  17.1 °C 30.1 in /  1018.8 hPa WSW 1 mph /  1.6 km/h 1 mph /  1.6 km/h 86 % 0 in /  0.0 mm
04:05 67.3 °F /  19.6 °C 63.3 °F /  17.4 °C 30.1 in /  1018.8 hPa Calm   2 mph /  3.2 km/h 87 % 0 in /  0.0 mm
04:15 67.5 °F /  19.7 °C 63.1 °F /  17.3 °C 30.1 in /  1018.8 hPa SW 2 mph /  3.2 km/h 3 mph /  4.8 km/h 86 % 0 in /  0.0 mm
04:25 68 °F /  20.0 °C 63.3 °F /  17.4 °C 30.1 in /  1018.8 hPa SW 1 mph /  1.6 km/h 2 mph /  3.2 km/h 85 % 0 in /  0.0 mm
04:35 68.7 °F /  20.4 °C 64 °F /  17.8 °C 30.1 in /  1018.8 hPa SW 1 mph /  1.6 km/h 2 mph /  3.2 km/h 85 % 0 in /  0.0 mm
04:45 69.1 °F /  20.6 °C 64 °F /  17.8 °C 30.1 in /  1018.8 hPa Calm   1 mph /  1.6 km/h 84 % 0 in /  0.0 mm
04:55 69.6 °F /  20.9 °C 64.6 °F /  18.1 °C 30.1 in /  1018.8 hPa Calm   1 mph /  1.6 km/h 84 % 0 in /  0.0 mm
05:05 70.3 °F /  21.3 °C 64.9 °F /  18.3 °C 30.1 in /  1018.8 hPa SE 1 mph /  1.6 km/h 2 mph /  3.2 km/h 83 % 0 in /  0.0 mm
05:15 72 °F /  22.2 °C 66.2 °F /  19.0 °C 30.1 in /  1018.8 hPa NNE 2 mph /  3.2 km/h 2 mph /  3.2 km/h 82 % 0 in /  0.0 mm
05:25 72.7 °F /  22.6 °C 65.8 °F /  18.8 °C 30.1 in /  1018.8 hPa North 1 mph /  1.6 km/h 3 mph /  4.8 km/h 79 % 0 in /  0.0 mm
05:35 72.9 °F /  22.7 °C 65.1 °F /  18.4 °C 30.1 in /  1019.9 hPa NE 3 mph /  4.8 km/h 4 mph /  6.4 km/h 77 % 0 in /  0.0 mm
05:45 73.8 °F /  23.2 °C 65.3 °F /  18.5 °C 30.1 in /  1018.8 hPa NE 2 mph /  3.2 km/h 4 mph /  6.4 km/h 75 % 0 in /  0.0 mm
10:49 80.6 °F /  27.0 °C 67.3 °F /  19.6 °C 30.1 in /  1018.8 hPa WSW 2.3 mph /  3.7 km/h 2.3 mph /  3.7 km/h 64 % 0 in /  0.0 mm
10:54 80.1 °F /  26.7 °C 66.4 °F /  19.1 °C 30.1 in /  1018.8 hPa East 2.6 mph /  4.2 km/h 2.6 mph /  4.2 km/h 63 % 0 in /  0.0 mm
10:59 78.3 °F /  25.7 °C 64.2 °F /  17.9 °C 30.1 in /  1018.8 hPa South 5.8 mph /  9.3 km/h 5.8 mph /  9.3 km/h 62 % 0 in /  0.0 mm
11:04 79.9 °F /  26.6 °C 66.6 °F /  19.2 °C 30.1 in /  1018.8 hPa ESE 3.5 mph /  5.6 km/h 3.5 mph /  5.6 km/h 64 % 0 in /  0.0 mm
11:09 79.5 °F /  26.4 °C 65.8 °F /  18.8 °C 30.1 in /  1018.8 hPa SE 4.6 mph /  7.4 km/h 4.6 mph /  7.4 km/h 63 % 0 in /  0.0 mm
11:14 81.1 °F /  27.3 °C 67.3 °F /  19.6 °C 30.1 in /  1018.8 hPa ESE 2.3 mph /  3.7 km/h 2.3 mph /  3.7 km/h 63 % 0 in /  0.0 mm
11:19 81.5 °F /  27.5 °C 66.7 °F /  19.3 °C 30.1 in /  1018.8 hPa ESE 2.3 mph /  3.7 km/h 2.3 mph /  3.7 km/h 61 % 0 in /  0.0 mm
11:24 82.2 °F /  27.9 °C 67.5 °F /  19.7 °C 30.1 in /  1018.8 hPa West 2.3 mph /  3.7 km/h 2.3 mph /  3.7 km/h 61 % 0 in /  0.0 mm
11:29 82.4 °F /  28.0 °C 67.1 °F /  19.5 °C 30.1 in /  1018.8 hPa East 3.5 mph /  5.6 km/h 3.5 mph /  5.6 km/h 60 % 0 in /  0.0 mm
11:34 82.4 °F /  28.0 °C 67.1 °F /  19.5 °C 30.1 in /  1018.8 hPa WSW 4.6 mph /  7.4 km/h 4.6 mph /  7.4 km/h 60 % 0 in /  0.0 mm
11:39 82.2 °F /  27.9 °C 66.6 °F /  19.2 °C 30.1 in /  1018.8 hPa ENE 3.5 mph /  5.6 km/h 3.5 mph /  5.6 km/h 59 % 0 in /  0.0 mm
11:44 82.4 °F /  28.0 °C 66 °F /  18.9 °C 30.1 in /  1018.8 hPa NE 3.5 mph /  5.6 km/h 3.5 mph /  5.6 km/h 58 % 0 in /  0.0 mm
11:49 82 °F /  27.8 °C 65.8 °F /  18.8 °C 30.1 in /  1018.8 hPa ENE 3.5 mph /  5.6 km/h 3.5 mph /  5.6 km/h 58 % 0 in /  0.0 mm
11:54 82 °F /  27.8 °C 64.8 °F /  18.2 °C 30.1 in /  1018.8 hPa South 5.8 mph /  9.3 km/h 5.8 mph /  9.3 km/h 56 % 0 in /  0.0 mm
11:59 83.7 °F /  28.7 °C 66.4 °F /  19.1 °C 30.1 in /  1017.8 hPa ESE 2.4 mph /  3.9 km/h 2.4 mph /  3.9 km/h 56 % 0 in /  0.0 mm
12:04 83.7 °F /  28.7 °C 66.4 °F /  19.1 °C 30.1 in /  1017.8 hPa NNE 2.3 mph /  3.7 km/h 2.3 mph /  3.7 km/h 56 % 0 in /  0.0 mm
12:09 83.8 °F /  28.8 °C 66.6 °F /  19.2 °C 30.1 in /  1017.8 hPa SSE 2.3 mph /  3.7 km/h 2.3 mph /  3.7 km/h 56 % 0 in /  0.0 mm
12:14 84.2 °F /  29.0 °C 65.8 °F /  18.8 °C 30.1 in /  1017.8 hPa WSW 3.5 mph /  5.6 km/h 3.5 mph /  5.6 km/h 54 % 0 in /  0.0 mm
12:19 84.9 °F /  29.4 °C 65.8 °F /  18.8 °C 30.1 in /  1017.8 hPa SW 2.9 mph /  4.7 km/h 2.9 mph /  4.7 km/h 53 % 0 in /  0.0 mm
12:24 85.6 °F /  29.8 °C 65.5 °F /  18.6 °C 30.1 in /  1017.8 hPa SE 2.3 mph /  3.7 km/h 2.4 mph /  3.9 km/h 51 % 0 in /  0.0 mm
12:29 86 °F /  30.0 °C 65.8 °F /  18.8 °C 30 in /  1016.8 hPa WSW 3.5 mph /  5.6 km/h 3.5 mph /  5.6 km/h 51 % 0 in /  0.0 mm
12:34 86.2 °F /  30.1 °C 65.5 °F /  18.6 °C 30 in /  1016.8 hPa South 3.6 mph /  5.8 km/h 3.6 mph /  5.8 km/h 50 % 0 in /  0.0 mm
12:39 86.4 °F /  30.2 °C 64.9 °F /  18.3 °C 30 in /  1016.8 hPa SSE 3.1 mph /  5.0 km/h 3.1 mph /  5.0 km/h 49 % 0 in /  0.0 mm
12:44 87.6 °F /  30.9 °C 65.5 °F /  18.6 °C 30.1 in /  1017.8 hPa South 6.9 mph /  11.1 km/h 6.9 mph /  11.1 km/h 48 % 0 in /  0.0 mm
12:49 87.1 °F /  30.6 °C 65.7 °F /  18.7 °C 30.1 in /  1017.8 hPa SW 5.8 mph /  9.3 km/h 5.8 mph /  9.3 km/h 49 % 0 in /  0.0 mm
12:54 86.7 °F /  30.4 °C 65.3 °F /  18.5 °C 30.1 in /  1017.8 hPa SSW 3.5 mph /  5.6 km/h 3.5 mph /  5.6 km/h 49 % 0 in /  0.0 mm
12:59 86 °F /  30.0 °C 62.8 °F /  17.1 °C 30.1 in /  1017.8 hPa ESE 3.6 mph /  5.8 km/h 3.6 mph /  5.8 km/h 46 % 0 in /  0.0 mm
13:04 85.5 °F /  29.7 °C 62.2 °F /  16.8 °C 30.1 in /  1017.8 hPa WSW 2.3 mph /  3.7 km/h 2.3 mph /  3.7 km/h 46 % 0 in /  0.0 mm
13:09 86.5 °F /  30.3 °C 64.6 °F /  18.1 °C 30.1 in /  1017.8 hPa West 5.8 mph /  9.3 km/h 5.8 mph /  9.3 km/h 48 % 0 in /  0.0 mm
13:10 86.5 °F /  30.3 °C 64.6 °F /  18.1 °C 30.1 in /  1017.8 hPa WSW 5.9 mph /  9.5 km/h 5.9 mph /  9.5 km/h 48 % 0 in /  0.0 mm
13:15 87.3 °F /  30.7 °C 64 °F /  17.8 °C 30.1 in /  1017.8 hPa SSE 2.4 mph /  3.9 km/h 2.4 mph /  3.9 km/h 46 % 0 in /  0.0 mm
13:20 88.9 °F /  31.6 °C 64.8 °F /  18.2 °C 30.1 in /  1017.8 hPa WSW 6 mph /  9.7 km/h 6 mph /  9.7 km/h 45 % 0 in /  0.0 mm
13:25 88.2 °F /  31.2 °C 60.8 °F /  16.0 °C 30.1 in /  1017.8 hPa SE 4.6 mph /  7.4 km/h 4.6 mph /  7.4 km/h 40 % 0 in /  0.0 mm
13:30 88.3 °F /  31.3 °C 61 °F /  16.1 °C 30.1 in /  1017.8 hPa NE 3.5 mph /  5.6 km/h 3.5 mph /  5.6 km/h 40 % 0 in /  0.0 mm
13:35 87.4 °F /  30.8 °C 60.8 °F /  16.0 °C 30.1 in /  1017.8 hPa East 4.6 mph /  7.4 km/h 4.6 mph /  7.4 km/h 41 % 0 in /  0.0 mm
13:40 87.1 °F /  30.6 °C 60.4 °F /  15.8 °C 30.1 in /  1017.8 hPa East 5.8 mph /  9.3 km/h 5.8 mph /  9.3 km/h 41 % 0 in /  0.0 mm
13:45 87.8 °F /  31.0 °C 61.9 °F /  16.6 °C 30.1 in /  1017.8 hPa South 6 mph /  9.7 km/h 6 mph /  9.7 km/h 42 % 0 in /  0.0 mm
13:50 89.1 °F /  31.7 °C 62.2 °F /  16.8 °C 30.1 in /  1017.8 hPa NNW 6.9 mph /  11.1 km/h 6.9 mph /  11.1 km/h 41 % 0 in /  0.0 mm
13:55 89.1 °F /  31.7 °C 62.2 °F /  16.8 °C 30.1 in /  1017.8 hPa WSW 3.5 mph /  5.6 km/h 3.5 mph /  5.6 km/h 41 % 0 in /  0.0 mm
14:00 89.8 °F /  32.1 °C 62.2 °F /  16.8 °C 30 in /  1016.8 hPa South 4.6 mph /  7.4 km/h 4.6 mph /  7.4 km/h 40 % 0 in /  0.0 mm
14:05 90.3 °F /  32.4 °C 63.3 °F /  17.4 °C 30 in /  1016.8 hPa SSW 5 mph /  8.0 km/h 7 mph /  11.3 km/h 41 % 0 in /  0.0 mm
14:10 90.5 °F /  32.5 °C 63.7 °F /  17.6 °C 30 in /  1016.8 hPa West 5.8 mph /  9.3 km/h 5.8 mph /  9.3 km/h 41 % 0 in /  0.0 mm
14:15 89.8 °F /  32.1 °C 63 °F /  17.2 °C 30 in /  1016.8 hPa NE 2.3 mph /  3.7 km/h 2.3 mph /  3.7 km/h 41 % 0 in /  0.0 mm
14:20 90.7 °F /  32.6 °C 61.5 °F /  16.4 °C 30 in /  1016.8 hPa SSW 7.8 mph /  12.6 km/h 7.8 mph /  12.6 km/h 38 % 0 in /  0.0 mm
14:25 89.8 °F /  32.1 °C 61.5 °F /  16.4 °C 30 in /  1016.8 hPa ESE 5.8 mph /  9.3 km/h 5.8 mph /  9.3 km/h 39 % 0 in /  0.0 mm
14:30 90.1 °F /  32.3 °C 63.3 °F /  17.4 °C 30 in /  1016.8 hPa ESE 6.9 mph /  11.1 km/h 6.9 mph /  11.1 km/h 41 % 0 in /  0.0 mm
14:35 89.1 °F /  31.7 °C 63.7 °F /  17.6 °C 30 in /  1016.8 hPa NE 5.8 mph /  9.3 km/h 5.8 mph /  9.3 km/h 43 % 0 in /  0.0 mm
14:40 89.4 °F /  31.9 °C 64 °F /  17.8 °C 30 in /  1016.8 hPa ESE 4.6 mph /  7.4 km/h 4.6 mph /  7.4 km/h 43 % 0 in /  0.0 mm
14:45 88.7 °F /  31.5 °C 64 °F /  17.8 °C 30 in /  1015.8 hPa SE 3 mph /  4.8 km/h 6 mph /  9.7 km/h 44 % 0 in /  0.0 mm
14:50 86.7 °F /  30.4 °C 64 °F /  17.8 °C 30 in /  1015.8 hPa ESE 8.1 mph /  13.0 km/h 8.1 mph /  13.0 km/h 47 % 0 in /  0.0 mm
14:55 86.2 °F /  30.1 °C 64.8 °F /  18.2 °C 30 in /  1015.8 hPa ESE 7 mph /  11.3 km/h 11 mph /  17.7 km/h 49 % 0 in /  0.0 mm
15:00 86 °F /  30.0 °C 64.6 °F /  18.1 °C 30 in /  1015.8 hPa East 6.2 mph /  10.0 km/h 6.2 mph /  10.0 km/h 49 % 0 in /  0.0 mm
15:05 86.4 °F /  30.2 °C 65.5 °F /  18.6 °C 30 in /  1015.8 hPa East 8.7 mph /  14.0 km/h 8.7 mph /  14.0 km/h 50 % 0 in /  0.0 mm
15:10 85.6 °F /  29.8 °C 65.5 °F /  18.6 °C 30 in /  1015.8 hPa East 5 mph /  8.0 km/h 13 mph /  20.9 km/h 51 % 0 in /  0.0 mm
15:15 85.6 °F /  29.8 °C 66 °F /  18.9 °C 30 in /  1015.8 hPa ESE 11.5 mph /  18.5 km/h 11.5 mph /  18.5 km/h 52 % 0 in /  0.0 mm
15:20 85.3 °F /  29.6 °C 66.2 °F /  19.0 °C 30 in /  1015.8 hPa ESE 8.5 mph /  13.7 km/h 8.5 mph /  13.7 km/h 53 % 0 in /  0.0 mm
15:25 85.1 °F /  29.5 °C 66.6 °F /  19.2 °C 30 in /  1015.8 hPa East 7.4 mph /  11.9 km/h 7.4 mph /  11.9 km/h 54 % 0 in /  0.0 mm
15:30 85.5 °F /  29.7 °C 66.4 °F /  19.1 °C 30 in /  1015.8 hPa ESE 9.2 mph /  14.8 km/h 9.2 mph /  14.8 km/h 53 % 0 in /  0.0 mm
15:35 85.1 °F /  29.5 °C 66 °F /  18.9 °C 30 in /  1015.8 hPa NNE 8.1 mph /  13.0 km/h 8.1 mph /  13.0 km/h 53 % 0 in /  0.0 mm
15:40 85.1 °F /  29.5 °C 66 °F /  18.9 °C 30 in /  1015.8 hPa ESE 5.8 mph /  9.3 km/h 5.8 mph /  9.3 km/h 53 % 0 in /  0.0 mm
15:45 85.3 °F /  29.6 °C 66.2 °F /  19.0 °C 30 in /  1015.8 hPa South 8.1 mph /  13.0 km/h 8.1 mph /  13.0 km/h 53 % 0 in /  0.0 mm
15:50 86.7 °F /  30.4 °C 66.9 °F /  19.4 °C 30 in /  1015.8 hPa SSW 4.6 mph /  7.4 km/h 4.6 mph /  7.4 km/h 52 % 0 in /  0.0 mm
15:55 86.9 °F /  30.5 °C 67.3 °F /  19.6 °C 30 in /  1015.8 hPa WSW 3.6 mph /  5.8 km/h 3.6 mph /  5.8 km/h 52 % 0 in /  0.0 mm
16:00 87.1 °F /  30.6 °C 66.7 °F /  19.3 °C 30 in /  1015.8 hPa SSW 8.1 mph /  13.0 km/h 8.1 mph /  13.0 km/h 51 % 0 in /  0.0 mm
16:05 86.2 °F /  30.1 °C 66.6 °F /  19.2 °C 30 in /  1015.8 hPa South 5.8 mph /  9.3 km/h 5.8 mph /  9.3 km/h 52 % 0 in /  0.0 mm
16:10 87.8 °F /  31.0 °C 66.7 °F /  19.3 °C 30 in /  1015.8 hPa SW 5.8 mph /  9.3 km/h 5.8 mph /  9.3 km/h 50 % 0 in /  0.0 mm
16:15 88.7 °F /  31.5 °C 67.6 °F /  19.8 °C 30 in /  1015.8 hPa WSW 6.2 mph /  10.0 km/h 6.2 mph /  10.0 km/h 50 % 0 in /  0.0 mm
16:20 88.9 °F /  31.6 °C 67.3 °F /  19.6 °C 30 in /  1015.8 hPa South 5.8 mph /  9.3 km/h 5.8 mph /  9.3 km/h 49 % 0 in /  0.0 mm
16:25 89.6 °F /  32.0 °C 67.8 °F /  19.9 °C 30 in /  1015.8 hPa SW 5.8 mph /  9.3 km/h 5.8 mph /  9.3 km/h 49 % 0 in /  0.0 mm
16:30 90 °F /  32.2 °C 68.2 °F /  20.1 °C 30 in /  1015.8 hPa SW 8.1 mph /  13.0 km/h 8.1 mph /  13.0 km/h 49 % 0 in /  0.0 mm
16:35 90.5 °F /  32.5 °C 68.2 °F /  20.1 °C 30 in /  1015.8 hPa South 5.8 mph /  9.3 km/h 5.8 mph /  9.3 km/h 48 % 0 in /  0.0 mm
16:36 90.5 °F /  32.5 °C 68.2 °F /  20.1 °C 30 in /  1015.8 hPa WSW 5.8 mph /  9.3 km/h 5.8 mph /  9.3 km/h 48 % 0 in /  0.0 mm
16:41 90.5 °F /  32.5 °C 68.2 °F /  20.1 °C 30 in /  1015.8 hPa SW 9.2 mph /  14.8 km/h 9.2 mph /  14.8 km/h 48 % 0 in /  0.0 mm
16:46 90.3 °F /  32.4 °C 68 °F /  20.0 °C 30 in /  1015.8 hPa West 5.9 mph /  9.5 km/h 5.9 mph /  9.5 km/h 48 % 0 in /  0.0 mm
16:51 90.3 °F /  32.4 °C 67.5 °F /  19.7 °C 30 in /  1015.8 hPa ESE 4.6 mph /  7.4 km/h 4.6 mph /  7.4 km/h 47 % 0 in /  0.0 mm
16:56 90.5 °F /  32.5 °C 67.5 °F /  19.7 °C 30 in /  1015.8 hPa SSW 6.2 mph /  10.0 km/h 6.2 mph /  10.0 km/h 47 % 0 in /  0.0 mm
17:01 90.9 °F /  32.7 °C 67.8 °F /  19.9 °C 30 in /  1015.8 hPa South 6.9 mph /  11.1 km/h 6.9 mph /  11.1 km/h 47 % 0 in /  0.0 mm
17:06 90.1 °F /  32.3 °C 67.3 °F /  19.6 °C 30 in /  1015.8 hPa ENE 3.5 mph /  5.6 km/h 3.5 mph /  5.6 km/h 47 % 0 in /  0.0 mm
17:11 88.9 °F /  31.6 °C 66.7 °F /  19.3 °C 30 in /  1015.8 hPa ESE 4.9 mph /  7.9 km/h 5.6 mph /  9.0 km/h 48 % 0 in /  0.0 mm
17:16 88.5 °F /  31.4 °C 66.4 °F /  19.1 °C 30 in /  1015.8 hPa East 4.6 mph /  7.4 km/h 4.6 mph /  7.4 km/h 48 % 0 in /  0.0 mm
17:21 88.3 °F /  31.3 °C 66.7 °F /  19.3 °C 30 in /  1015.8 hPa WSW 2.9 mph /  4.7 km/h 2.9 mph /  4.7 km/h 49 % 0 in /  0.0 mm
17:26 88.9 °F /  31.6 °C 66.7 °F /  19.3 °C 30 in /  1014.8 hPa ESE 3.5 mph /  5.6 km/h 3.5 mph /  5.6 km/h 48 % 0 in /  0.0 mm
17:31 87.3 °F /  30.7 °C 66.4 °F /  19.1 °C 30 in /  1014.8 hPa ESE 8.5 mph /  13.7 km/h 8.5 mph /  13.7 km/h 50 % 0 in /  0.0 mm
17:36 85.5 °F /  29.7 °C 65.8 °F /  18.8 °C 30 in /  1014.8 hPa ESE 8.1 mph /  13.0 km/h 8.5 mph /  13.7 km/h 52 % 0 in /  0.0 mm
17:41 84.7 °F /  29.3 °C 65.7 °F /  18.7 °C 30 in /  1015.8 hPa ESE 11.5 mph /  18.5 km/h 11.5 mph /  18.5 km/h 53 % 0 in /  0.0 mm
17:46 85.6 °F /  29.8 °C 67.1 °F /  19.5 °C 30 in /  1015.8 hPa ESE 5.8 mph /  9.3 km/h 5.8 mph /  9.3 km/h 54 % 0 in /  0.0 mm
17:51 85.1 °F /  29.5 °C 66 °F /  18.9 °C 30 in /  1015.8 hPa West 5.8 mph /  9.3 km/h 5.8 mph /  9.3 km/h 53 % 0 in /  0.0 mm
17:56 84 °F /  28.9 °C 66 °F /  18.9 °C 30 in /  1015.8 hPa WSW 4.6 mph /  7.4 km/h 4.6 mph /  7.4 km/h 55 % 0 in /  0.0 mm
18:01 85.5 °F /  29.7 °C 66.9 °F /  19.4 °C 30 in /  1015.8 hPa West 3.5 mph /  5.6 km/h 4 mph /  6.4 km/h 54 % 0 in /  0.0 mm
18:06 85.6 °F /  29.8 °C 66.6 °F /  19.2 °C 30 in /  1015.8 hPa NNE 3.5 mph /  5.6 km/h 3.5 mph /  5.6 km/h 53 % 0 in /  0.0 mm
18:11 85.6 °F /  29.8 °C 66.6 °F /  19.2 °C 30 in /  1015.8 hPa ESE 3.5 mph /  5.6 km/h 3.5 mph /  5.6 km/h 53 % 0 in /  0.0 mm
18:16 86.2 °F /  30.1 °C 66.9 °F /  19.4 °C 30 in /  1015.8 hPa SSW 5.8 mph /  9.3 km/h 5.8 mph /  9.3 km/h 53 % 0 in /  0.0 mm
18:21 87.1 °F /  30.6 °C 67.3 °F /  19.6 °C 30 in /  1015.8 hPa SW 4.6 mph /  7.4 km/h 4.6 mph /  7.4 km/h 52 % 0 in /  0.0 mm
18:26 87.1 °F /  30.6 °C 67.3 °F /  19.6 °C 30 in /  1015.8 hPa SSW 6.9 mph /  11.1 km/h 6.9 mph /  11.1 km/h 52 % 0 in /  0.0 mm
18:31 86.9 °F /  30.5 °C 67.3 °F /  19.6 °C 30 in /  1015.8 hPa SW 5.8 mph /  9.3 km/h 5.8 mph /  9.3 km/h 52 % 0 in /  0.0 mm
18:36 86.4 °F /  30.2 °C 66.7 °F /  19.3 °C 30 in /  1015.8 hPa SSW 5.9 mph /  9.5 km/h 5.9 mph /  9.5 km/h 52 % 0 in /  0.0 mm
18:41 85.5 °F /  29.7 °C 65.8 °F /  18.8 °C 30 in /  1015.8 hPa SSW 8.1 mph /  13.0 km/h 8.1 mph /  13.0 km/h 52 % 0 in /  0.0 mm
18:46 84.9 °F /  29.4 °C 65.3 °F /  18.5 °C 30 in /  1015.8 hPa WSW 6.9 mph /  11.1 km/h 6.9 mph /  11.1 km/h 52 % 0 in /  0.0 mm
18:51 85.1 °F /  29.5 °C 65.5 °F /  18.6 °C 30 in /  1015.8 hPa SW 5.8 mph /  9.3 km/h 5.8 mph /  9.3 km/h 52 % 0 in /  0.0 mm
18:56 84.6 °F /  29.2 °C 64.9 °F /  18.3 °C 30 in /  1015.8 hPa West 8.1 mph /  13.0 km/h 8.1 mph /  13.0 km/h 52 % 0 in /  0.0 mm
18:57 84.4 °F /  29.1 °C 64.8 °F /  18.2 °C 30 in /  1015.8 hPa WSW 5.8 mph /  9.3 km/h 5.8 mph /  9.3 km/h 52 % 0 in /  0.0 mm
19:02 84 °F /  28.9 °C 65.7 °F /  18.7 °C 30 in /  1015.8 hPa SW 9.2 mph /  14.8 km/h 9.2 mph /  14.8 km/h 54 % 0 in /  0.0 mm
19:07 83.8 °F /  28.8 °C 65.5 °F /  18.6 °C 30 in /  1015.8 hPa SW 9.2 mph /  14.8 km/h 9.2 mph /  14.8 km/h 54 % 0 in /  0.0 mm
19:12 83.3 °F /  28.5 °C 64.9 °F /  18.3 °C 30 in /  1015.8 hPa SW 4.9 mph /  7.9 km/h 4.9 mph /  7.9 km/h 54 % 0 in /  0.0 mm
19:17 83.3 °F /  28.5 °C 65.5 °F /  18.6 °C 30 in /  1015.8 hPa SSW 4.6 mph /  7.4 km/h 4.6 mph /  7.4 km/h 55 % 0 in /  0.0 mm
19:22 82.9 °F /  28.3 °C 65.1 °F /  18.4 °C 30 in /  1015.8 hPa West 9.2 mph /  14.8 km/h 9.2 mph /  14.8 km/h 55 % 0 in /  0.0 mm
19:27 82.4 °F /  28.0 °C 65.1 °F /  18.4 °C 30 in /  1015.8 hPa WSW 7.1 mph /  11.4 km/h 7.1 mph /  11.4 km/h 56 % 0 in /  0.0 mm
19:32 82 °F /  27.8 °C 64.8 °F /  18.2 °C 30 in /  1015.8 hPa SW 6.9 mph /  11.1 km/h 6.9 mph /  11.1 km/h 56 % 0 in /  0.0 mm
19:37 81.9 °F /  27.7 °C 65.1 °F /  18.4 °C 30 in /  1015.8 hPa SW 6.9 mph /  11.1 km/h 6.9 mph /  11.1 km/h 57 % 0 in /  0.0 mm
19:42 81.5 °F /  27.5 °C 64.8 °F /  18.2 °C 30 in /  1015.8 hPa SW 8.1 mph /  13.0 km/h 8.1 mph /  13.0 km/h 57 % 0 in /  0.0 mm
19:47 81.7 °F /  27.6 °C 64.9 °F /  18.3 °C 30 in /  1015.8 hPa SW 4.6 mph /  7.4 km/h 4.6 mph /  7.4 km/h 57 % 0 in /  0.0 mm
19:52 81.5 °F /  27.5 °C 65.3 °F /  18.5 °C 30 in /  1015.8 hPa SW 4.9 mph /  7.9 km/h 4.9 mph /  7.9 km/h 58 % 0 in /  0.0 mm
19:57 80.8 °F /  27.1 °C 64.6 °F /  18.1 °C 30 in /  1015.8 hPa SW 6.9 mph /  11.1 km/h 6.9 mph /  11.1 km/h 58 % 0 in /  0.0 mm
20:02 80.8 °F /  27.1 °C 64.6 °F /  18.1 °C 30 in /  1015.8 hPa SSW 2.3 mph /  3.7 km/h 2.3 mph /  3.7 km/h 58 % 0 in /  0.0 mm
20:07 80.6 °F /  27.0 °C 64.9 °F /  18.3 °C 30 in /  1015.8 hPa SW 4.6 mph /  7.4 km/h 4.6 mph /  7.4 km/h 59 % 0 in /  0.0 mm
20:12 80.2 °F /  26.8 °C 65.1 °F /  18.4 °C 30 in /  1015.8 hPa SSE 4.6 mph /  7.4 km/h 4.6 mph /  7.4 km/h 60 % 0 in /  0.0 mm
20:15 73.9 °F /  23.3 °C 63.9 °F /  17.7 °C 30 in /  1016.8 hPa SW 2 mph /  3.2 km/h 2 mph /  3.2 km/h 71 % 0 in /  0.0 mm
20:17 79.5 °F /  26.4 °C 64.4 °F /  18.0 °C 30 in /  1015.8 hPa Calm     60 % 0 in /  0.0 mm
20:22 79.3 °F /  26.3 °C 64.8 °F /  18.2 °C 30 in /  1015.8 hPa East 3.6 mph /  5.8 km/h 3.6 mph /  5.8 km/h 61 % 0 in /  0.0 mm
20:25 73.6 °F /  23.1 °C 64 °F /  17.8 °C 30 in /  1016.8 hPa SW 2 mph /  3.2 km/h 2 mph /  3.2 km/h 72 % 0 in /  0.0 mm
20:27 78.8 °F /  26.0 °C 64.2 °F /  17.9 °C 30 in /  1014.8 hPa West 1.6 mph /  2.6 km/h 2 mph /  3.2 km/h 61 % 0 in /  0.0 mm
20:32 78.1 °F /  25.6 °C 63.5 °F /  17.5 °C 30 in /  1014.8 hPa East 4.6 mph /  7.4 km/h 4.6 mph /  7.4 km/h 61 % 0 in /  0.0 mm
20:35 73.4 °F /  23.0 °C 64.2 °F /  17.9 °C 30 in /  1016.8 hPa SW 1 mph /  1.6 km/h 2 mph /  3.2 km/h 73 % 0 in /  0.0 mm
20:37 77.7 °F /  25.4 °C 63.7 °F /  17.6 °C 30 in /  1014.8 hPa ESE 4.9 mph /  7.9 km/h 4.9 mph /  7.9 km/h 62 % 0 in /  0.0 mm
20:42 77.4 °F /  25.2 °C 63.9 °F /  17.7 °C 30 in /  1014.8 hPa ENE 3.5 mph /  5.6 km/h 3.5 mph /  5.6 km/h 63 % 0 in /  0.0 mm
20:45 73.2 °F /  22.9 °C 64.8 °F /  18.2 °C 30 in /  1016.8 hPa WSW 1 mph /  1.6 km/h 1 mph /  1.6 km/h 75 % 0 in /  0.0 mm
20:47 77.2 °F /  25.1 °C 63.7 °F /  17.6 °C 30 in /  1014.8 hPa East 4.6 mph /  7.4 km/h 4.6 mph /  7.4 km/h 63 % 0 in /  0.0 mm
20:52 77 °F /  25.0 °C 63.9 °F /  17.7 °C 30 in /  1014.8 hPa ESE 3.5 mph /  5.6 km/h 3.5 mph /  5.6 km/h 64 % 0 in /  0.0 mm
20:55 73 °F /  22.8 °C 64.6 °F /  18.1 °C 30 in /  1016.8 hPa WSW 1 mph /  1.6 km/h 2 mph /  3.2 km/h 75 % 0 in /  0.0 mm
20:57 76.8 °F /  24.9 °C 64.2 °F /  17.9 °C 30 in /  1015.8 hPa East 3.6 mph /  5.8 km/h 3.6 mph /  5.8 km/h 65 % 0 in /  0.0 mm
21:02 76.5 °F /  24.7 °C 63.9 °F /  17.7 °C 30 in /  1015.8 hPa ESE 3.5 mph /  5.6 km/h 3.5 mph /  5.6 km/h 65 % 0 in /  0.0 mm
21:05 73 °F /  22.8 °C 64.9 °F /  18.3 °C 30 in /  1015.8 hPa WSW 2 mph /  3.2 km/h 3 mph /  4.8 km/h 76 % 0 in /  0.0 mm
21:07 76.3 °F /  24.6 °C 63.7 °F /  17.6 °C 30 in /  1015.8 hPa ENE 4.6 mph /  7.4 km/h 4.6 mph /  7.4 km/h 65 % 0 in /  0.0 mm
21:12 76.1 °F /  24.5 °C 63.9 °F /  17.7 °C 30 in /  1016.8 hPa NE 4.6 mph /  7.4 km/h 4.6 mph /  7.4 km/h 66 % 0 in /  0.0 mm
21:15 72.9 °F /  22.7 °C 64.8 °F /  18.2 °C 30 in /  1016.8 hPa WSW 1 mph /  1.6 km/h 2 mph /  3.2 km/h 76 % 0 in /  0.0 mm
21:17 75.9 °F /  24.4 °C 63.7 °F /  17.6 °C 30 in /  1016.8 hPa NE 5.8 mph /  9.3 km/h 5.8 mph /  9.3 km/h 66 % 0 in /  0.0 mm
21:22 75.7 °F /  24.3 °C 63.7 °F /  17.6 °C 30 in /  1016.8 hPa ENE 8.1 mph /  13.0 km/h 8.1 mph /  13.0 km/h 66 % 0 in /  0.0 mm
21:25 72.7 °F /  22.6 °C 65.1 °F /  18.4 °C 30 in /  1016.8 hPa WSW 1 mph /  1.6 km/h 3 mph /  4.8 km/h 77 % 0 in /  0.0 mm
21:27 75.7 °F /  24.3 °C 64 °F /  17.8 °C 30 in /  1015.8 hPa ENE 4.6 mph /  7.4 km/h 4.6 mph /  7.4 km/h 67 % 0 in /  0.0 mm
21:32 75.6 °F /  24.2 °C 63.9 °F /  17.7 °C 30 in /  1015.8 hPa ENE 3.5 mph /  5.6 km/h 3.5 mph /  5.6 km/h 67 % 0 in /  0.0 mm
21:35 72.3 °F /  22.4 °C 65.1 °F /  18.4 °C 30 in /  1016.8 hPa Calm   2 mph /  3.2 km/h 78 % 0 in /  0.0 mm
21:37 75.4 °F /  24.1 °C 63.7 °F /  17.6 °C 30 in /  1015.8 hPa ENE 3.5 mph /  5.6 km/h 3.5 mph /  5.6 km/h 67 % 0 in /  0.0 mm
21:42 75.2 °F /  24.0 °C 63.9 °F /  17.7 °C 30 in /  1015.8 hPa East 3.5 mph /  5.6 km/h 3.5 mph /  5.6 km/h 68 % 0 in /  0.0 mm
21:45 72 °F /  22.2 °C 64.8 °F /  18.2 °C 30 in /  1015.8 hPa SW 2 mph /  3.2 km/h 2 mph /  3.2 km/h 78 % 0 in /  0.0 mm
21:47 75.2 °F /  24.0 °C 63.9 °F /  17.7 °C 30 in /  1015.8 hPa NNE 2.4 mph /  3.9 km/h 2.4 mph /  3.9 km/h 68 % 0 in /  0.0 mm
21:52 75 °F /  23.9 °C 64.2 °F /  17.9 °C 30 in /  1015.8 hPa ENE 3.5 mph /  5.6 km/h 3.5 mph /  5.6 km/h 69 % 0 in /  0.0 mm
21:55 71.6 °F /  22.0 °C 64.8 °F /  18.2 °C 30 in /  1015.8 hPa SW 1 mph /  1.6 km/h 2 mph /  3.2 km/h 79 % 0 in /  0.0 mm
21:57 74.8 °F /  23.8 °C 64 °F /  17.8 °C 30 in /  1016.8 hPa NNE 4.6 mph /  7.4 km/h 4.6 mph /  7.4 km/h 69 % 0 in /  0.0 mm
22:02 74.8 °F /  23.8 °C 64 °F /  17.8 °C 30 in /  1016.8 hPa East 2.3 mph /  3.7 km/h 2.3 mph /  3.7 km/h 69 % 0 in /  0.0 mm
22:05 71.4 °F /  21.9 °C 64.6 °F /  18.1 °C 30 in /  1015.8 hPa SW 1 mph /  1.6 km/h 2 mph /  3.2 km/h 79 % 0 in /  0.0 mm
22:07 74.8 °F /  23.8 °C 64 °F /  17.8 °C 30 in /  1016.8 hPa NE 3.5 mph /  5.6 km/h 3.5 mph /  5.6 km/h 69 % 0 in /  0.0 mm
22:12 74.7 °F /  23.7 °C 63.9 °F /  17.7 °C 30 in /  1016.8 hPa ENE 2.3 mph /  3.7 km/h 2.3 mph /  3.7 km/h 69 % 0 in /  0.0 mm
22:15 71.2 °F /  21.8 °C 64.8 °F /  18.2 °C 30 in /  1015.8 hPa Calm   2 mph /  3.2 km/h 80 % 0 in /  0.0 mm
22:17 74.7 °F /  23.7 °C 63.9 °F /  17.7 °C 30 in /  1016.8 hPa NE 4.3 mph /  6.9 km/h 4.3 mph /  6.9 km/h 69 % 0 in /  0.0 mm
22:22 74.7 °F /  23.7 °C 63.9 °F /  17.7 °C 30 in /  1016.8 hPa East 2.6 mph /  4.2 km/h 2.6 mph /  4.2 km/h 69 % 0 in /  0.0 mm
22:25 71.1 °F /  21.7 °C 64.6 °F /  18.1 °C 30 in /  1015.8 hPa SW 1 mph /  1.6 km/h 2 mph /  3.2 km/h 80 % 0 in /  0.0 mm
22:27 74.5 °F /  23.6 °C 63.7 °F /  17.6 °C 30 in /  1016.8 hPa NNE 1.6 mph /  2.6 km/h 1.6 mph /  2.6 km/h 69 % 0 in /  0.0 mm
22:32 74.3 °F /  23.5 °C 63.5 °F /  17.5 °C 30 in /  1016.8 hPa ENE 1.2 mph /  1.9 km/h 1.4 mph /  2.3 km/h 69 % 0 in /  0.0 mm
22:35 70.9 °F /  21.6 °C 64.8 °F /  18.2 °C 30 in /  1015.8 hPa Calm   2 mph /  3.2 km/h 81 % 0 in /  0.0 mm
22:37 74.1 °F /  23.4 °C 63 °F /  17.2 °C 30 in /  1016.8 hPa NE 2.4 mph /  3.9 km/h 2.4 mph /  3.9 km/h 68 % 0 in /  0.0 mm
22:42 74.1 °F /  23.4 °C 63 °F /  17.2 °C 30 in /  1016.8 hPa ENE 2.3 mph /  3.7 km/h 2.3 mph /  3.7 km/h 68 % 0 in /  0.0 mm
22:45 70.7 °F /  21.5 °C 64.6 °F /  18.1 °C 30 in /  1015.8 hPa SW 1 mph /  1.6 km/h 2 mph /  3.2 km/h 81 % 0 in /  0.0 mm
22:47 74.1 °F /  23.4 °C 63 °F /  17.2 °C 30 in /  1016.8 hPa NE 2.3 mph /  3.7 km/h 2.3 mph /  3.7 km/h 68 % 0 in /  0.0 mm
22:52 73.9 °F /  23.3 °C 62.8 °F /  17.1 °C 30 in /  1016.8 hPa NE 2.3 mph /  3.7 km/h   68 % 0 in /  0.0 mm
22:55 70.7 °F /  21.5 °C 64.9 °F /  18.3 °C 30 in /  1015.8 hPa Calm   1 mph /  1.6 km/h 82 % 0 in /  0.0 mm
22:57 73.9 °F /  23.3 °C 62.8 °F /  17.1 °C 30 in /  1016.8 hPa NE 2.3 mph /  3.7 km/h 2.3 mph /  3.7 km/h 68 % 0 in /  0.0 mm
23:02 73.8 °F /  23.2 °C 62.4 °F /  16.9 °C 30 in /  1016.8 hPa ENE 2.3 mph /  3.7 km/h 2.3 mph /  3.7 km/h 68 % 0 in /  0.0 mm
23:05 70.5 °F /  21.4 °C 64.8 °F /  18.2 °C 30 in /  1015.8 hPa Calm   2 mph /  3.2 km/h 82 % 0 in /  0.0 mm
23:07 73.9 °F /  23.3 °C 62.8 °F /  17.1 °C 30 in /  1016.8 hPa ENE 2.3 mph /  3.7 km/h 2.3 mph /  3.7 km/h 68 % 0 in /  0.0 mm
23:12 73.9 °F /  23.3 °C 62.8 °F /  17.1 °C 30.1 in /  1017.8 hPa East 1.2 mph /  1.9 km/h   68 % 0 in /  0.0 mm
23:15 70.5 °F /  21.4 °C 64.8 °F /  18.2 °C 30 in /  1015.8 hPa WSW 1 mph /  1.6 km/h 1 mph /  1.6 km/h 82 % 0 in /  0.0 mm
23:17 73.8 °F /  23.2 °C 62.4 °F /  16.9 °C 30.1 in /  1017.8 hPa NE 1.6 mph /  2.6 km/h 1.6 mph /  2.6 km/h 68 % 0 in /  0.0 mm
23:22 73.9 °F /  23.3 °C 62.8 °F /  17.1 °C 30.1 in /  1017.8 hPa NE 1.2 mph /  1.9 km/h 1.2 mph /  1.9 km/h 68 % 0 in /  0.0 mm
23:25 70.5 °F /  21.4 °C 65.1 °F /  18.4 °C 30 in /  1015.8 hPa Calm   1 mph /  1.6 km/h 83 % 0 in /  0.0 mm
23:27 73.9 °F /  23.3 °C 62.8 °F /  17.1 °C 30 in /  1016.8 hPa NE 1.2 mph /  1.9 km/h 1.2 mph /  1.9 km/h 68 % 0 in /  0.0 mm
23:32 73.9 °F /  23.3 °C 62.8 °F /  17.1 °C 30 in /  1016.8 hPa Calm     68 % 0 in /  0.0 mm
23:35 70.3 °F /  21.3 °C 64.9 °F /  18.3 °C 30 in /  1015.8 hPa Calm   2 mph /  3.2 km/h 83 % 0 in /  0.0 mm
23:37 73.9 °F /  23.3 °C 62.8 °F /  17.1 °C 30 in /  1016.8 hPa Calm     68 % 0 in /  0.0 mm
23:42 73.9 °F /  23.3 °C 62.8 °F /  17.1 °C 30 in /  1016.8 hPa SW 1.2 mph /  1.9 km/h   68 % 0 in /  0.0 mm
23:45 70.3 °F /  21.3 °C 64.9 °F /  18.3 °C 30 in /  1015.8 hPa Calm     83 % 0 in /  0.0 mm
23:47 73.9 °F /  23.3 °C 62.8 °F /  17.1 °C 30 in /  1016.8 hPa SW 1.6 mph /  2.6 km/h   68 % 0 in /  0.0 mm
23:52 73.9 °F /  23.3 °C 63.1 °F /  17.3 °C 30 in /  1016.8 hPa SW 1.6 mph /  2.6 km/h 1.6 mph /  2.6 km/h 69 % 0 in /  0.0 mm
23:55 70.3 °F /  21.3 °C 64.9 °F /  18.3 °C 30 in /  1015.8 hPa Calm     83 % 0 in /  0.0 mm
23:58 73.9 °F /  23.3 °C 63.1 °F /  17.3 °C 30 in /  1016.8 hPa SW 1.2 mph /  1.9 km/h   69 % 0 in /  0.0 mm
Meteo Sesrovires
Elogis d' Weather Underground - 3.75 mb

Guio original per  Jim McMurry - jmcmurry@mwt.net Adaptat per a la plantilla per  Wim van der Kuil - Leuven-Template.eu

Trobareu la nostra informacio del temps tambe a:

Weather Underground

AWEKAS